createdAt,value
2022-10-15T00:01:48.676Z,76641.53
2022-10-15T00:04:16.755Z,76647.63
2022-10-15T00:06:46.920Z,76653.72
2022-10-15T00:09:13.909Z,76651.69
2022-10-15T00:11:41.124Z,76651.69
2022-10-15T00:14:11.116Z,76657.75
2022-10-15T00:16:40.466Z,76661.81
2022-10-15T00:19:07.544Z,76657.75
2022-10-15T00:21:34.663Z,76661.81
2022-10-15T00:24:01.727Z,76661.81
2022-10-15T00:26:31.924Z,76665.88
2022-10-15T00:29:04.002Z,76665.88
2022-10-15T00:31:33.099Z,76673.97
2022-10-15T00:34:02.827Z,76667.91
2022-10-15T00:36:33.490Z,76673.97
2022-10-15T00:39:01.440Z,76673.97
2022-10-15T00:41:34.372Z,76669.94
2022-10-15T00:44:23.214Z,76678.03
2022-10-15T00:46:59.670Z,76673.97
2022-10-15T00:49:40.364Z,76686.13
2022-10-15T00:52:12.966Z,76686.13
2022-10-15T00:54:52.899Z,76694.25
2022-10-15T00:57:22.733Z,76694.25
2022-10-15T01:00:00.245Z,76692.22
2022-10-15T01:02:28.142Z,76698.31
2022-10-15T01:04:56.662Z,76706.41
2022-10-15T01:07:23.639Z,76710.47
2022-10-15T01:09:52.062Z,76708.44
2022-10-15T01:13:08.697Z,76714.53
2022-10-15T01:15:43.366Z,76714.53
2022-10-15T01:18:20.328Z,76710.47
2022-10-15T01:20:54.047Z,76710.47
2022-10-15T01:23:58.728Z,76718.56
2022-10-15T01:26:51.460Z,76722.63
2022-10-15T01:29:52.376Z,76714.53
2022-10-15T01:32:37.707Z,76712.50
2022-10-15T01:35:28.315Z,76718.56
2022-10-15T01:38:18.542Z,76726.69
2022-10-15T01:41:01.053Z,76734.78
2022-10-15T01:43:52.352Z,76736.81
2022-10-15T01:46:42.874Z,76734.78
2022-10-15T01:49:21.446Z,76728.72
2022-10-15T01:51:50.807Z,76728.72
2022-10-15T01:54:23.530Z,76734.78
2022-10-15T01:56:54.610Z,76730.75
2022-10-15T01:59:26.118Z,76734.78
2022-10-15T02:01:58.031Z,76738.84
2022-10-15T02:04:32.169Z,76738.84
2022-10-15T02:07:33.731Z,76738.84
2022-10-15T02:10:14.256Z,76738.84
2022-10-15T02:12:49.048Z,76755.06
2022-10-15T02:15:32.010Z,76755.06
2022-10-15T02:18:23.573Z,76755.06
2022-10-15T02:21:06.966Z,76759.13
2022-10-15T02:23:50.275Z,76763.16
2022-10-15T02:26:18.200Z,76771.28
2022-10-15T02:28:51.847Z,76773.31
2022-10-15T02:31:23.171Z,76775.34
2022-10-15T02:33:54.569Z,76773.31
2022-10-15T02:36:22.204Z,76773.31
2022-10-15T02:38:52.487Z,76775.34
2022-10-15T02:41:21.111Z,76767.22
2022-10-15T02:43:49.149Z,76781.41
2022-10-15T02:46:20.504Z,76779.38
2022-10-15T02:48:50.173Z,76779.38
2022-10-15T02:51:18.185Z,76779.38
2022-10-15T02:53:45.453Z,76791.56
2022-10-15T02:56:13.066Z,76783.44
2022-10-15T02:58:43.917Z,76791.56
2022-10-15T03:01:12.903Z,76795.59
2022-10-15T03:03:40.418Z,76799.66
2022-10-15T03:06:07.839Z,76799.66
2022-10-15T03:08:34.857Z,76801.69
2022-10-15T03:11:04.037Z,76811.81
2022-10-15T03:13:36.134Z,76811.81
2022-10-15T03:16:08.754Z,76815.88
2022-10-15T03:18:40.634Z,76813.84
2022-10-15T03:21:09.712Z,76811.81
2022-10-15T03:23:36.866Z,76819.94
2022-10-15T03:26:14.211Z,76815.88
2022-10-15T03:28:42.962Z,76813.84
2022-10-15T03:31:14.412Z,76819.94
2022-10-15T03:33:44.866Z,76824.00
2022-10-15T03:36:11.949Z,76832.09
2022-10-15T03:38:39.116Z,76824.00
2022-10-15T03:41:11.053Z,76824.00
2022-10-15T03:43:42.849Z,76824.00
2022-10-15T03:46:10.689Z,76826.00
2022-10-15T03:48:42.228Z,76824.00
2022-10-15T03:51:11.847Z,76824.00
2022-10-15T03:53:40.825Z,76815.88
2022-10-15T03:56:08.550Z,76815.88
2022-10-15T03:58:38.778Z,76803.72
2022-10-15T04:01:16.057Z,76803.72
2022-10-15T04:03:44.127Z,76799.66
2022-10-15T04:06:11.568Z,76795.59
2022-10-15T04:08:39.632Z,76789.53
2022-10-15T04:11:20.833Z,76787.50
2022-10-15T04:13:56.916Z,76779.38
2022-10-15T04:16:24.374Z,76771.28
2022-10-15T04:18:51.449Z,76771.28
2022-10-15T04:21:18.504Z,76765.19
2022-10-15T04:23:50.293Z,76761.16
2022-10-15T04:26:31.117Z,76757.09
2022-10-15T04:29:00.667Z,76746.97
2022-10-15T04:31:28.427Z,76744.94
2022-10-15T04:33:56.844Z,76746.97
2022-10-15T04:36:24.081Z,76746.97
2022-10-15T04:39:02.065Z,76744.94
2022-10-15T04:41:37.817Z,76736.81
2022-10-15T04:44:10.688Z,76734.78
2022-10-15T04:46:39.246Z,76738.84
2022-10-15T04:49:23.901Z,76738.84
2022-10-15T04:51:51.230Z,76734.78
2022-10-15T04:57:04.673Z,76730.75
2022-10-15T04:59:32.109Z,76718.56
2022-10-15T05:02:19.588Z,76720.59
2022-10-15T05:04:51.708Z,76710.47
2022-10-15T05:07:19.053Z,76710.47
2022-10-15T05:09:48.000Z,76702.34
2022-10-15T05:12:15.980Z,76702.34
2022-10-15T05:14:43.116Z,76702.34
2022-10-15T05:17:16.780Z,76702.34
2022-10-15T05:19:44.979Z,76710.47
2022-10-15T05:22:18.962Z,76706.41
2022-10-15T05:24:53.084Z,76712.50
2022-10-15T05:27:31.582Z,76710.47
2022-10-15T05:29:59.616Z,76702.34
2022-10-15T05:32:35.719Z,76700.34
2022-10-15T05:35:03.806Z,76698.31
2022-10-15T05:37:47.336Z,76698.31
2022-10-15T05:40:18.325Z,76694.25
2022-10-15T05:43:01.154Z,76698.31
2022-10-15T05:45:28.102Z,76702.34
2022-10-15T05:47:58.450Z,76694.25
2022-10-15T05:50:25.876Z,76690.19
2022-10-15T05:52:55.918Z,76686.13
2022-10-15T05:55:32.058Z,76667.91
2022-10-15T05:58:03.410Z,76665.88
2022-10-15T06:00:31.360Z,76649.66
2022-10-15T06:02:58.699Z,76645.59
2022-10-15T06:05:25.973Z,76637.50
2022-10-15T06:07:53.234Z,76633.44
2022-10-15T06:10:20.290Z,76625.31
2022-10-15T06:12:51.403Z,76617.22
2022-10-15T06:15:19.419Z,76609.09
2022-10-15T06:17:46.565Z,76596.94
2022-10-15T06:20:13.891Z,76588.84
2022-10-15T06:22:40.941Z,76564.50
2022-10-15T06:25:09.337Z,76550.31
2022-10-15T06:27:36.434Z,76540.19
2022-10-15T06:30:04.132Z,76532.09
2022-10-15T06:32:31.419Z,76528.03
2022-10-15T06:34:58.347Z,76511.81
2022-10-15T06:37:26.744Z,76495.59
2022-10-15T06:39:56.740Z,76483.44
2022-10-15T06:42:23.946Z,76471.28
2022-10-15T06:44:55.168Z,76455.06
2022-10-15T06:47:22.828Z,76451.00
2022-10-15T06:49:50.265Z,76442.91
2022-10-15T06:52:17.312Z,76442.91
2022-10-15T06:54:44.778Z,76430.72
2022-10-15T06:57:12.115Z,76430.72
2022-10-15T06:59:41.341Z,76434.78
2022-10-15T07:02:14.251Z,76438.84
2022-10-15T07:04:41.171Z,76436.81
2022-10-15T07:07:08.125Z,76434.78
2022-10-15T07:09:35.515Z,76428.69
2022-10-15T07:12:03.184Z,76430.72
2022-10-15T07:14:30.241Z,76422.63
2022-10-15T07:16:58.037Z,76412.47
2022-10-15T07:19:26.600Z,76402.34
2022-10-15T07:21:53.456Z,76390.19
2022-10-15T07:24:20.734Z,76376.00
2022-10-15T07:26:48.116Z,76369.91
2022-10-15T07:29:15.189Z,76357.75
2022-10-15T07:31:46.616Z,76353.72
2022-10-15T07:34:16.514Z,76339.50
2022-10-15T07:37:01.806Z,76321.28
2022-10-15T07:39:29.439Z,76309.13
2022-10-15T07:41:56.320Z,76284.78
2022-10-15T07:44:23.281Z,76276.69
2022-10-15T07:46:50.503Z,76252.34
2022-10-15T07:49:17.575Z,76244.25
2022-10-15T07:51:45.390Z,76236.16
2022-10-15T07:54:12.499Z,76248.31
2022-10-15T07:56:39.310Z,76240.19
2022-10-15T07:59:08.277Z,76223.97
2022-10-15T08:01:35.418Z,76238.16
2022-10-15T08:04:02.672Z,76221.94
2022-10-15T08:06:32.000Z,76213.84
2022-10-15T08:08:59.728Z,76215.88
2022-10-15T08:11:29.984Z,76215.88
2022-10-15T08:13:57.155Z,76207.78
2022-10-15T08:16:24.468Z,76205.75
2022-10-15T08:19:00.053Z,76199.66
2022-10-15T08:21:27.201Z,76195.59
2022-10-15T08:23:54.262Z,76191.56
2022-10-15T08:26:30.064Z,76185.47
2022-10-15T08:28:57.291Z,76191.56
2022-10-15T08:31:24.301Z,76187.50
2022-10-15T08:33:51.606Z,76171.28
2022-10-15T08:36:18.667Z,76146.97
2022-10-15T08:38:45.796Z,76134.78
2022-10-15T08:41:26.272Z,76118.59
2022-10-15T08:43:53.459Z,76106.41
2022-10-15T08:46:25.517Z,76090.22
2022-10-15T08:48:58.455Z,76074.00
2022-10-15T08:51:34.078Z,76053.72
2022-10-15T08:54:04.583Z,76037.50
2022-10-15T08:56:36.902Z,76029.41
2022-10-15T08:59:33.454Z,76013.19
2022-10-15T09:02:31.203Z,75996.97
2022-10-15T09:05:24.802Z,75992.94
2022-10-15T09:08:13.240Z,75992.94
2022-10-15T09:11:17.847Z,75992.94
2022-10-15T09:13:46.987Z,75992.94
2022-10-15T09:16:28.700Z,75992.94
2022-10-15T09:18:58.613Z,75988.88
2022-10-15T09:21:28.286Z,75984.81
2022-10-15T09:23:58.977Z,75984.81
2022-10-15T09:26:34.682Z,75972.66
2022-10-15T09:29:18.422Z,75964.56
2022-10-15T09:32:21.264Z,75942.25
2022-10-15T09:35:00.575Z,75928.06
2022-10-15T09:37:43.434Z,75909.81
2022-10-15T09:40:13.572Z,75899.69
2022-10-15T09:42:42.855Z,75887.53
2022-10-15T09:45:15.647Z,75879.44
2022-10-15T09:47:43.975Z,75867.28
2022-10-15T09:50:13.591Z,75861.19
2022-10-15T09:53:13.279Z,75857.13
2022-10-15T09:56:04.428Z,75844.97
2022-10-15T09:58:39.882Z,75834.84
2022-10-15T10:01:17.017Z,75826.72
2022-10-15T10:03:43.927Z,75814.56
2022-10-15T10:06:13.849Z,75810.53
2022-10-15T10:08:51.592Z,75806.47
2022-10-15T10:11:20.032Z,75804.44
2022-10-15T10:14:00.461Z,75798.38
2022-10-15T10:16:30.169Z,75790.25
2022-10-15T10:19:13.676Z,75782.16
2022-10-15T10:21:42.906Z,75765.94
2022-10-15T10:24:31.938Z,75753.78
2022-10-15T10:26:59.952Z,75745.66
2022-10-15T10:29:35.435Z,75753.78
2022-10-15T10:32:21.951Z,75753.78
2022-10-15T10:34:52.892Z,75749.72
2022-10-15T10:37:21.145Z,75753.78
2022-10-15T10:40:01.126Z,75743.66
2022-10-15T10:42:34.163Z,75723.38
2022-10-15T10:45:18.876Z,75709.19
2022-10-15T10:47:46.759Z,75697.03
2022-10-15T10:50:30.088Z,75672.72
2022-10-15T10:53:00.072Z,75654.47
2022-10-15T10:55:37.900Z,75638.25
2022-10-15T10:58:05.674Z,75603.81
2022-10-15T11:00:47.757Z,75581.53
2022-10-15T11:03:27.135Z,75587.59
2022-10-15T11:06:12.155Z,75583.53
2022-10-15T11:08:55.477Z,75585.56
2022-10-15T11:11:32.016Z,75587.59
2022-10-15T11:14:09.458Z,75567.34
2022-10-15T11:17:14.074Z,75563.28
2022-10-15T11:20:36.770Z,75561.25
2022-10-15T11:23:15.888Z,75553.16
2022-10-15T11:25:59.445Z,75543.00
2022-10-15T11:28:59.722Z,75528.84
2022-10-15T11:31:37.197Z,75526.81
2022-10-15T11:34:32.831Z,75526.81
2022-10-15T11:37:26.131Z,75514.66
2022-10-15T11:40:20.090Z,75498.44
2022-10-15T11:43:14.394Z,75472.09
2022-10-15T11:45:52.105Z,75470.06
2022-10-15T11:48:37.554Z,75461.97
2022-10-15T11:51:45.313Z,75461.97
2022-10-15T11:54:57.426Z,75457.91
2022-10-15T11:57:26.408Z,75449.81
2022-10-15T12:00:00.910Z,75449.81
2022-10-15T12:02:35.406Z,75453.84
2022-10-15T12:05:09.398Z,75463.97
2022-10-15T12:07:41.328Z,75466.00
2022-10-15T12:10:13.751Z,75474.13
2022-10-15T12:12:59.002Z,75478.16
2022-10-15T12:15:52.001Z,75490.31
2022-10-15T12:18:40.068Z,75490.31
2022-10-15T12:21:37.157Z,75486.28
2022-10-15T12:24:25.559Z,75486.28
2022-10-15T12:26:52.802Z,75490.31
2022-10-15T12:29:23.760Z,75490.31
2022-10-15T12:31:55.788Z,75494.38
2022-10-15T12:34:27.112Z,75506.53
2022-10-15T12:37:22.863Z,75516.66
2022-10-15T12:39:57.280Z,75522.75
2022-10-15T12:42:40.556Z,75522.75
2022-10-15T12:45:22.754Z,75528.84
2022-10-15T12:48:33.225Z,75526.81
2022-10-15T12:51:21.914Z,75528.84
2022-10-15T12:53:51.142Z,75518.69
2022-10-15T12:56:21.752Z,75522.75
2022-10-15T12:58:53.492Z,75522.75
2022-10-15T13:01:20.674Z,75514.66
2022-10-15T13:03:50.741Z,75514.66
2022-10-15T13:06:20.867Z,75516.66
2022-10-15T13:08:50.895Z,75514.66
2022-10-15T13:11:25.647Z,75510.59
2022-10-15T13:13:58.846Z,75514.66
2022-10-15T13:16:26.657Z,75510.59
2022-10-15T13:18:56.627Z,75508.56
2022-10-15T13:21:47.499Z,75500.47
2022-10-15T13:24:18.826Z,75488.31
2022-10-15T13:26:46.303Z,75476.16
2022-10-15T13:29:18.505Z,75466.00
2022-10-15T13:31:46.339Z,75466.00
2022-10-15T13:34:36.435Z,75459.94
2022-10-15T13:37:04.881Z,75455.88
2022-10-15T13:39:40.124Z,75457.91
2022-10-15T13:42:16.474Z,75474.13
2022-10-15T13:44:56.204Z,75486.28
2022-10-15T13:47:40.502Z,75490.31
2022-10-15T13:50:17.992Z,75502.50
2022-10-15T13:53:06.573Z,75510.59
2022-10-15T13:55:37.594Z,75518.69
2022-10-15T13:58:34.300Z,75526.81
2022-10-15T14:01:09.203Z,75530.84
2022-10-15T14:03:39.319Z,75530.84
2022-10-15T14:06:26.735Z,75530.84
2022-10-15T14:08:57.264Z,75522.75
2022-10-15T14:11:25.255Z,75526.81
2022-10-15T14:13:55.589Z,75530.84
2022-10-15T14:16:30.635Z,75530.84
2022-10-15T14:19:06.783Z,75534.91
2022-10-15T14:21:36.935Z,75541.00
2022-10-15T14:24:12.222Z,75551.13
2022-10-15T14:26:40.380Z,75559.22
2022-10-15T14:29:19.288Z,75579.50
2022-10-15T14:31:48.189Z,75567.34
2022-10-15T14:34:40.203Z,75581.53
2022-10-15T14:37:30.842Z,75575.44
2022-10-15T14:40:10.032Z,75575.44
2022-10-15T14:42:44.415Z,75579.50
2022-10-15T14:45:17.470Z,75587.59
2022-10-15T14:47:51.142Z,75583.53
2022-10-15T14:50:19.458Z,75587.59
2022-10-15T14:52:52.359Z,75595.69
2022-10-15T14:55:43.403Z,75595.69
2022-10-15T14:58:22.133Z,75595.69
2022-10-15T15:00:59.043Z,75603.81
2022-10-15T15:03:32.031Z,75609.88
2022-10-15T15:05:59.281Z,75620.03
2022-10-15T15:08:28.729Z,75620.03
2022-10-15T15:10:59.842Z,75628.13
2022-10-15T15:13:29.549Z,75632.19
2022-10-15T15:15:57.359Z,75640.28
2022-10-15T15:18:24.427Z,75642.31
2022-10-15T15:20:51.786Z,75640.28
2022-10-15T15:23:26.518Z,75648.41
2022-10-15T15:25:54.944Z,75650.41
2022-10-15T15:28:25.335Z,75648.41
2022-10-15T15:30:58.637Z,75652.44
2022-10-15T15:33:28.180Z,75662.59
2022-10-15T15:36:00.963Z,75664.59
2022-10-15T15:38:31.491Z,75662.59
2022-10-15T15:41:15.645Z,75664.59
2022-10-15T15:43:43.106Z,75664.59
2022-10-15T15:46:10.857Z,75668.66
2022-10-15T15:48:38.185Z,75670.69
2022-10-15T15:51:12.344Z,75674.75
2022-10-15T15:53:39.241Z,75676.75
2022-10-15T15:56:06.914Z,75684.88
2022-10-15T15:58:33.839Z,75692.97
2022-10-15T16:01:01.648Z,75688.94
2022-10-15T16:03:28.765Z,75692.97
2022-10-15T16:05:57.453Z,75695.00
2022-10-15T16:08:24.755Z,75697.03
2022-10-15T16:10:52.447Z,75705.13
2022-10-15T16:13:19.593Z,75701.09
2022-10-15T16:15:46.761Z,75703.13
2022-10-15T16:18:13.929Z,75701.09
2022-10-15T16:20:46.240Z,75709.19
2022-10-15T16:23:15.338Z,75707.16
2022-10-15T16:25:42.596Z,75713.25
2022-10-15T16:28:09.519Z,75717.28
2022-10-15T16:30:36.800Z,75717.28
2022-10-15T16:33:04.338Z,75721.34
2022-10-15T16:35:31.577Z,75721.34
2022-10-15T16:37:58.592Z,75733.50
2022-10-15T16:40:26.028Z,75729.47
2022-10-15T16:42:53.051Z,75735.53
2022-10-15T16:45:20.446Z,75737.56
2022-10-15T16:47:48.862Z,75737.56
2022-10-15T16:50:17.076Z,75753.78
2022-10-15T16:52:44.759Z,75757.81
2022-10-15T16:55:14.334Z,75763.91
2022-10-15T16:57:42.003Z,75770.00
2022-10-15T17:00:11.215Z,75776.06
2022-10-15T17:02:38.154Z,75778.09
2022-10-15T17:05:05.643Z,75782.16
2022-10-15T17:07:32.680Z,75788.22
2022-10-15T17:10:00.388Z,75794.31
2022-10-15T17:12:28.017Z,75802.41
2022-10-15T17:14:55.412Z,75814.56
2022-10-15T17:17:22.419Z,75822.69
2022-10-15T17:19:49.561Z,75834.84
2022-10-15T17:22:16.492Z,75847.00
2022-10-15T17:24:43.886Z,75853.09
2022-10-15T17:27:10.794Z,75863.22
2022-10-15T17:29:38.237Z,75879.44
2022-10-15T17:32:05.199Z,75883.47
2022-10-15T17:34:32.611Z,75893.63
2022-10-15T17:36:59.582Z,75895.66
2022-10-15T17:39:27.175Z,75899.69
2022-10-15T17:41:54.184Z,75899.69
2022-10-15T17:44:21.778Z,75903.75
2022-10-15T17:49:28.547Z,75911.84
2022-10-15T17:51:55.867Z,75911.84
2022-10-15T17:54:23.421Z,75913.88
2022-10-15T17:56:50.413Z,75917.94
2022-10-15T17:59:18.186Z,75911.84
2022-10-15T18:01:57.939Z,75911.84
2022-10-15T18:04:27.915Z,75913.88
2022-10-15T18:06:55.028Z,75911.84
2022-10-15T18:09:25.351Z,75903.75
2022-10-15T18:11:55.986Z,75911.84
2022-10-15T18:14:29.024Z,75909.81
2022-10-15T18:16:56.838Z,75915.91
2022-10-15T18:19:27.772Z,75919.97
2022-10-15T18:21:55.642Z,75919.97
2022-10-15T18:24:24.037Z,75924.00
2022-10-15T18:26:51.776Z,75924.00
2022-10-15T18:29:19.511Z,75919.97
2022-10-15T18:31:53.385Z,75915.91
2022-10-15T18:34:23.615Z,75915.91
2022-10-15T18:37:08.824Z,75915.91
2022-10-15T18:39:37.353Z,75915.91
2022-10-15T18:42:04.243Z,75926.03
2022-10-15T18:44:33.485Z,75926.03
2022-10-15T18:47:00.938Z,75932.13
2022-10-15T18:49:28.192Z,75924.00
2022-10-15T18:51:55.739Z,75926.03
2022-10-15T18:54:22.968Z,75932.13
2022-10-15T18:56:51.058Z,75936.19
2022-10-15T18:59:19.872Z,75944.28
2022-10-15T19:01:49.470Z,75952.38
2022-10-15T19:04:19.385Z,75956.44
2022-10-15T19:06:49.331Z,75964.56
2022-10-15T19:09:25.447Z,75974.69
2022-10-15T19:11:54.464Z,75976.72
2022-10-15T19:14:22.533Z,75984.81
2022-10-15T19:16:50.962Z,75988.88
2022-10-15T19:19:20.484Z,75988.88
2022-10-15T19:21:50.022Z,75992.94
2022-10-15T19:24:19.338Z,75988.88
2022-10-15T19:26:48.811Z,75984.81
2022-10-15T19:29:16.262Z,75988.88
2022-10-15T19:31:48.646Z,75984.81
2022-10-15T19:34:16.294Z,75984.81
2022-10-15T19:36:49.104Z,75984.81
2022-10-15T19:39:21.033Z,75988.88
2022-10-15T19:41:49.053Z,75984.81
2022-10-15T19:44:20.130Z,75984.81
2022-10-15T19:46:47.730Z,75988.88
2022-10-15T19:49:15.565Z,75988.88
2022-10-15T19:51:42.872Z,75992.94
2022-10-15T19:54:10.207Z,75996.97
2022-10-15T19:56:37.294Z,76001.03
2022-10-15T19:59:05.971Z,76003.06
2022-10-15T20:01:33.563Z,76005.09
2022-10-15T20:04:05.906Z,76025.34
2022-10-15T20:06:35.178Z,76025.34
2022-10-15T20:09:02.367Z,76029.41
2022-10-15T20:11:29.636Z,76033.47
2022-10-15T20:13:58.748Z,76031.44
2022-10-15T20:16:27.529Z,76033.47
2022-10-15T20:18:57.171Z,76041.56
2022-10-15T20:21:24.253Z,76041.56
2022-10-15T20:23:51.381Z,76057.78
2022-10-15T20:26:18.438Z,76057.78
2022-10-15T20:28:46.846Z,76061.84
2022-10-15T20:31:20.586Z,76065.88
2022-10-15T20:33:49.428Z,76069.94
2022-10-15T20:36:23.549Z,76069.94
2022-10-15T20:38:52.011Z,76069.94
2022-10-15T20:41:19.753Z,76074.00
2022-10-15T20:43:52.989Z,76074.00
2022-10-15T20:46:25.694Z,76078.06
2022-10-15T20:48:54.414Z,76078.06
2022-10-15T20:51:23.466Z,76082.09
2022-10-15T20:53:55.582Z,76082.09
2022-10-15T20:56:23.522Z,76090.22
2022-10-15T20:58:51.099Z,76086.16
2022-10-15T21:01:19.894Z,76086.16
2022-10-15T21:03:47.406Z,76084.13
2022-10-15T21:06:14.522Z,76086.16
2022-10-15T21:08:41.960Z,76078.06
2022-10-15T21:11:09.605Z,76078.06
2022-10-15T21:13:36.937Z,76086.16
2022-10-15T21:16:06.136Z,76080.06
2022-10-15T21:18:35.446Z,76086.16
2022-10-15T21:21:05.699Z,76086.16
2022-10-15T21:23:33.098Z,76078.06
2022-10-15T21:26:15.028Z,76090.22
2022-10-15T21:28:43.095Z,76088.19
2022-10-15T21:31:13.453Z,76090.22
2022-10-15T21:33:41.507Z,76094.25
2022-10-15T21:36:23.386Z,76094.25
2022-10-15T21:38:54.844Z,76094.25
2022-10-15T21:41:23.234Z,76102.38
2022-10-15T21:46:17.945Z,76102.38
2022-10-15T21:48:45.560Z,76098.31
2022-10-15T21:51:15.252Z,76102.38
2022-10-15T21:53:43.251Z,76098.31
2022-10-15T21:56:10.561Z,76098.31
2022-10-15T21:58:39.951Z,76104.41
2022-10-15T22:01:08.939Z,76102.38
2022-10-15T22:03:36.312Z,76098.31
2022-10-15T22:06:04.735Z,76100.34
2022-10-15T22:08:32.660Z,76102.38
2022-10-15T22:11:14.146Z,76098.31
2022-10-15T22:13:43.064Z,76096.28
2022-10-15T22:16:10.981Z,76096.28
2022-10-15T22:18:39.013Z,76094.25
2022-10-15T22:21:17.372Z,76094.25
2022-10-15T22:23:46.174Z,76092.25
2022-10-15T22:26:14.445Z,76094.25
2022-10-15T22:28:42.158Z,76090.22
2022-10-15T22:31:14.301Z,76096.28
2022-10-15T22:33:42.611Z,76094.25
2022-10-15T22:36:30.232Z,76090.22
2022-10-15T22:39:03.273Z,76094.25
2022-10-15T22:41:35.950Z,76098.31
2022-10-15T22:44:04.020Z,76094.25
2022-10-15T22:46:39.136Z,76094.25
2022-10-15T22:49:07.997Z,76100.34
2022-10-15T22:51:35.387Z,76100.34
2022-10-15T22:54:02.648Z,76098.31
2022-10-15T22:56:30.767Z,76104.41
2022-10-15T22:58:58.748Z,76106.41
2022-10-15T23:01:28.435Z,76106.41
2022-10-15T23:03:57.985Z,76106.41
2022-10-15T23:06:26.202Z,76110.47
2022-10-15T23:08:55.962Z,76114.53
2022-10-15T23:11:39.025Z,76114.53
2022-10-15T23:14:16.373Z,76118.59
2022-10-15T23:16:46.399Z,76122.63
2022-10-15T23:19:19.657Z,76120.63
2022-10-15T23:21:56.541Z,76126.69
2022-10-15T23:24:25.979Z,76126.69
2022-10-15T23:26:53.931Z,76128.72
2022-10-15T23:29:23.969Z,76126.69
2022-10-15T23:31:52.040Z,76130.75
2022-10-15T23:34:22.188Z,76126.69
2022-10-15T23:36:49.992Z,76130.75
2022-10-15T23:39:19.473Z,76134.78
2022-10-15T23:41:47.063Z,76130.75
2022-10-15T23:44:14.180Z,76134.78
2022-10-15T23:46:41.292Z,76130.75
2022-10-15T23:49:08.961Z,76122.63
2022-10-15T23:51:36.283Z,76122.63
2022-10-15T23:54:08.627Z,76124.66
2022-10-15T23:56:35.782Z,76132.78
2022-10-15T23:59:03.069Z,76130.75
